createdAt,value
2022-10-01T00:00:52.154Z,14.37
2022-10-01T00:01:49.844Z,13.90
2022-10-01T00:02:47.331Z,13.73
2022-10-01T00:04:03.779Z,15.33
2022-10-01T00:05:28.725Z,16.23
2022-10-01T00:06:25.761Z,16.20
2022-10-01T00:13:37.000Z,16.17
2022-10-01T00:14:51.914Z,17.20
2022-10-01T00:16:01.313Z,17.13
2022-10-01T00:17:00.824Z,16.80
2022-10-01T00:17:58.336Z,17.10
2022-10-01T00:18:55.201Z,17.83
2022-10-01T00:19:52.038Z,17.10
2022-10-01T00:20:48.948Z,18.20
2022-10-01T00:21:45.857Z,20.37
2022-10-01T00:22:42.832Z,19.37
2022-10-01T00:23:39.674Z,20.33
2022-10-01T00:24:37.935Z,19.93
2022-10-01T00:25:35.148Z,21.33
2022-10-01T00:26:33.732Z,20.23
2022-10-01T00:27:31.579Z,20.77
2022-10-01T00:28:28.461Z,21.03
2022-10-01T00:29:26.711Z,21.03
2022-10-01T00:30:25.730Z,20.13
2022-10-01T00:31:23.027Z,20.70
2022-10-01T00:32:21.133Z,24.00
2022-10-01T00:33:18.097Z,21.23
2022-10-01T00:34:15.516Z,20.20
2022-10-01T00:35:14.292Z,21.80
2022-10-01T00:36:11.446Z,32.63
2022-10-01T00:37:10.771Z,22.13
2022-10-01T00:38:07.557Z,20.17
2022-10-01T00:39:04.402Z,24.53
2022-10-01T00:40:01.626Z,22.13
2022-10-01T00:40:58.655Z,22.47
2022-10-01T00:41:55.538Z,24.40
2022-10-01T00:42:52.650Z,27.03
2022-10-01T00:43:55.729Z,21.43
2022-10-01T00:44:54.159Z,25.47
2022-10-01T00:45:51.840Z,19.57
2022-10-01T00:46:48.892Z,22.47
2022-10-01T00:47:56.535Z,20.77
2022-10-01T00:49:02.626Z,21.73
2022-10-01T00:50:07.098Z,22.07
2022-10-01T00:51:04.765Z,20.23
2022-10-01T00:52:03.607Z,25.50
2022-10-01T00:53:02.989Z,23.10
2022-10-01T00:54:08.770Z,22.93
2022-10-01T00:55:14.300Z,19.77
2022-10-01T00:56:11.400Z,22.77
2022-10-01T00:57:08.215Z,20.97
2022-10-01T00:58:04.981Z,21.53
2022-10-01T00:59:02.182Z,21.47
2022-10-01T01:00:00.719Z,21.67
2022-10-01T01:00:57.607Z,21.40
2022-10-01T01:01:54.751Z,19.93
2022-10-01T01:02:51.632Z,31.20
2022-10-01T01:03:48.472Z,23.73
2022-10-01T01:04:45.535Z,21.53
2022-10-01T01:05:42.624Z,28.17
2022-10-01T01:06:39.475Z,23.20
2022-10-01T01:07:36.290Z,22.73
2022-10-01T01:08:33.424Z,22.20
2022-10-01T01:09:34.074Z,21.73
2022-10-01T01:10:53.107Z,21.37
2022-10-01T01:11:58.264Z,19.37
2022-10-01T01:13:05.180Z,23.45
2022-10-01T01:14:14.166Z,19.45
2022-10-01T01:15:31.178Z,20.85
2022-10-01T01:16:35.452Z,23.10
2022-10-01T01:17:52.492Z,25.23
2022-10-01T01:19:00.745Z,20.53
2022-10-01T01:20:32.724Z,24.25
2022-10-01T01:21:34.013Z,20.57
2022-10-01T01:22:32.519Z,21.77
2022-10-01T01:23:29.306Z,21.45
2022-10-01T01:24:32.718Z,21.13
2022-10-01T01:25:52.342Z,24.77
2022-10-01T01:26:59.381Z,22.93
2022-10-01T01:28:20.002Z,24.13
2022-10-01T01:29:28.919Z,20.80
2022-10-01T01:30:25.824Z,22.27
2022-10-01T01:31:25.324Z,22.00
2022-10-01T01:33:12.061Z,22.27
2022-10-01T01:34:12.845Z,20.73
2022-10-01T01:35:10.852Z,19.57
2022-10-01T01:36:14.090Z,22.23
2022-10-01T01:37:14.392Z,22.33
2022-10-01T01:38:14.386Z,20.80
2022-10-01T01:39:12.089Z,24.10
2022-10-01T01:40:11.951Z,22.90
2022-10-01T01:41:11.686Z,23.97
2022-10-01T01:42:12.477Z,20.38
2022-10-01T01:43:14.144Z,21.17
2022-10-01T01:44:11.749Z,22.73
2022-10-01T01:45:10.601Z,22.77
2022-10-01T01:46:08.187Z,22.03
2022-10-01T01:47:05.315Z,22.20
2022-10-01T01:48:02.348Z,20.17
2022-10-01T01:49:04.658Z,21.60
2022-10-01T01:50:02.900Z,22.33
2022-10-01T01:51:11.804Z,20.73
2022-10-01T01:52:13.457Z,20.33
2022-10-01T01:53:11.337Z,21.83
2022-10-01T01:54:08.645Z,20.67
2022-10-01T01:55:08.635Z,23.70
2022-10-01T01:56:06.421Z,19.73
2022-10-01T01:57:04.181Z,20.97
2022-10-01T01:58:00.912Z,20.10
2022-10-01T01:58:58.617Z,19.10
2022-10-01T01:59:55.552Z,19.03
2022-10-01T02:00:55.232Z,19.20
2022-10-01T02:01:52.178Z,20.03
2022-10-01T02:02:52.738Z,17.80
2022-10-01T02:03:49.963Z,17.97
2022-10-01T02:04:57.316Z,21.23
2022-10-01T02:06:05.508Z,16.77
2022-10-01T02:07:08.341Z,14.63
2022-10-01T02:08:17.611Z,15.30
2022-10-01T02:09:20.026Z,13.47
2022-10-01T02:10:16.960Z,11.67
2022-10-01T02:11:23.472Z,13.13
2022-10-01T02:12:35.677Z,11.73
2022-10-01T02:13:53.897Z,13.20
2022-10-01T02:15:01.299Z,12.33
2022-10-01T02:16:10.111Z,12.97
2022-10-01T02:17:16.603Z,18.20
2022-10-01T02:18:22.207Z,10.90
2022-10-01T02:19:23.277Z,12.30
2022-10-01T02:20:26.837Z,10.90
2022-10-01T02:21:28.888Z,10.90
2022-10-01T02:22:41.075Z,10.30
2022-10-01T02:23:46.528Z,9.90
2022-10-01T02:24:50.360Z,10.20
2022-10-01T02:25:49.495Z,11.13
2022-10-01T02:26:46.328Z,12.40
2022-10-01T02:27:49.285Z,12.50
2022-10-01T02:28:46.251Z,11.10
2022-10-01T02:29:43.266Z,12.07
2022-10-01T02:30:40.146Z,16.90
2022-10-01T02:31:37.471Z,8.97
2022-10-01T02:32:35.053Z,11.67
2022-10-01T02:33:35.402Z,11.77
2022-10-01T02:34:32.338Z,8.43
2022-10-01T02:35:32.877Z,10.47
2022-10-01T02:36:30.330Z,13.17
2022-10-01T02:37:27.985Z,11.93
2022-10-01T02:38:25.199Z,14.93
2022-10-01T02:39:22.031Z,8.43
2022-10-01T02:40:20.095Z,8.83
2022-10-01T02:41:19.582Z,9.10
2022-10-01T02:42:16.698Z,7.93
2022-10-01T02:43:21.209Z,7.87
2022-10-01T02:44:21.307Z,6.63
2022-10-01T02:45:22.880Z,13.27
2022-10-01T02:46:28.512Z,9.83
2022-10-01T02:47:28.737Z,11.20
2022-10-01T02:48:27.345Z,9.87
2022-10-01T02:49:28.541Z,8.63
2022-10-01T02:50:29.091Z,6.93
2022-10-01T02:51:32.659Z,12.80
2022-10-01T02:53:09.428Z,6.50
2022-10-01T02:54:16.950Z,8.40
2022-10-01T02:55:19.307Z,19.93
2022-10-01T02:56:36.792Z,14.87
2022-10-01T02:57:33.633Z,10.33
2022-10-01T02:58:30.419Z,7.23
2022-10-01T02:59:27.257Z,12.13
2022-10-01T03:00:25.250Z,9.17
2022-10-01T03:01:22.574Z,7.17
2022-10-01T03:02:20.002Z,6.47
2022-10-01T03:03:17.685Z,6.67
2022-10-01T03:04:14.393Z,6.20
2022-10-01T03:05:11.229Z,6.83
2022-10-01T03:06:08.053Z,6.33
2022-10-01T03:07:04.833Z,8.27
2022-10-01T03:08:01.756Z,7.90
2022-10-01T03:09:00.440Z,9.90
2022-10-01T03:09:57.668Z,12.00
2022-10-01T03:10:54.506Z,9.00
2022-10-01T03:11:52.031Z,8.23
2022-10-01T03:12:51.062Z,5.57
2022-10-01T03:13:47.957Z,5.47
2022-10-01T03:14:45.590Z,5.23
2022-10-01T03:15:42.462Z,4.53
2022-10-01T03:16:39.556Z,5.37
2022-10-01T03:17:37.267Z,6.17
2022-10-01T03:18:34.589Z,5.23
2022-10-01T03:19:31.483Z,4.87
2022-10-01T03:20:28.228Z,4.60
2022-10-01T03:21:25.100Z,3.90
2022-10-01T03:22:22.836Z,3.30
2022-10-01T03:23:31.369Z,3.27
2022-10-01T03:24:28.238Z,3.60
2022-10-01T03:25:25.070Z,3.60
2022-10-01T03:26:21.816Z,4.20
2022-10-01T03:27:19.179Z,2.90
2022-10-01T03:28:16.336Z,3.90
2022-10-01T03:29:13.525Z,3.17
2022-10-01T03:30:13.378Z,2.93
2022-10-01T03:31:10.943Z,4.37
2022-10-01T03:32:07.910Z,4.17
2022-10-01T03:33:04.830Z,2.80
2022-10-01T03:34:01.806Z,6.00
2022-10-01T03:34:58.879Z,4.27
2022-10-01T03:35:56.094Z,4.43
2022-10-01T03:36:52.987Z,3.40
2022-10-01T03:37:49.842Z,4.50
2022-10-01T03:38:46.640Z,9.70
2022-10-01T03:39:43.535Z,5.73
2022-10-01T03:40:40.582Z,8.33
2022-10-01T03:41:37.429Z,6.20
2022-10-01T03:42:34.300Z,4.73
2022-10-01T03:43:31.178Z,5.97
2022-10-01T03:44:30.828Z,3.33
2022-10-01T03:45:27.650Z,8.60
2022-10-01T03:46:24.533Z,3.77
2022-10-01T03:47:24.481Z,4.93
2022-10-01T03:48:21.435Z,4.10
2022-10-01T03:49:18.482Z,7.73
2022-10-01T03:50:15.805Z,5.90
2022-10-01T03:51:15.594Z,7.27
2022-10-01T03:52:16.124Z,21.80
2022-10-01T03:53:12.917Z,15.60
2022-10-01T03:54:10.149Z,9.37
2022-10-01T03:55:07.672Z,4.73
2022-10-01T03:56:05.095Z,6.33
2022-10-01T03:57:02.087Z,5.67
2022-10-01T03:57:59.061Z,20.23
2022-10-01T03:58:55.798Z,6.60
2022-10-01T03:59:52.659Z,6.10
2022-10-01T04:00:50.079Z,5.40
2022-10-01T04:01:46.979Z,10.17
2022-10-01T04:02:44.245Z,10.53
2022-10-01T04:03:41.633Z,5.07
2022-10-01T04:04:38.493Z,4.97
2022-10-01T04:05:35.374Z,4.63
2022-10-01T04:06:32.246Z,3.93
2022-10-01T04:07:29.031Z,3.17
2022-10-01T04:08:25.945Z,5.57
2022-10-01T04:09:22.797Z,2.40
2022-10-01T04:10:19.782Z,3.00
2022-10-01T04:11:16.620Z,3.83
2022-10-01T04:12:13.971Z,2.70
2022-10-01T04:13:13.669Z,2.63
2022-10-01T04:14:11.197Z,2.80
2022-10-01T04:15:10.922Z,2.20
2022-10-01T04:16:07.986Z,2.40
2022-10-01T04:17:08.198Z,2.00
2022-10-01T04:18:06.356Z,1.77
2022-10-01T04:19:05.207Z,2.67
2022-10-01T04:20:04.085Z,2.30
2022-10-01T04:21:01.835Z,2.33
2022-10-01T04:21:59.336Z,2.63
2022-10-01T04:22:59.674Z,3.00
2022-10-01T04:23:58.081Z,1.70
2022-10-01T04:24:55.260Z,1.80
2022-10-01T04:25:52.248Z,2.03
2022-10-01T04:26:53.485Z,1.70
2022-10-01T04:28:01.211Z,1.77
2022-10-01T04:29:01.315Z,1.73
2022-10-01T04:30:00.141Z,1.67
2022-10-01T04:31:16.115Z,1.87
2022-10-01T04:32:13.034Z,1.70
2022-10-01T04:33:16.200Z,1.83
2022-10-01T04:34:13.005Z,2.30
2022-10-01T04:35:14.116Z,1.87
2022-10-01T04:36:11.836Z,1.87
2022-10-01T04:37:08.602Z,1.50
2022-10-01T04:38:07.172Z,2.83
2022-10-01T04:39:04.540Z,1.50
2022-10-01T04:40:01.781Z,1.90
2022-10-01T04:41:00.209Z,1.50
2022-10-01T04:41:57.119Z,1.70
2022-10-01T04:42:54.380Z,1.87
2022-10-01T04:43:52.699Z,1.80
2022-10-01T04:44:49.932Z,2.00
2022-10-01T04:45:47.105Z,1.70
2022-10-01T04:46:44.766Z,1.93
2022-10-01T04:47:49.009Z,1.80
2022-10-01T04:48:48.217Z,2.43
2022-10-01T04:49:48.192Z,1.43
2022-10-01T04:50:48.368Z,1.87
2022-10-01T04:51:47.269Z,1.47
2022-10-01T04:52:46.095Z,1.40
2022-10-01T04:53:56.173Z,1.60
2022-10-01T04:55:00.071Z,1.40
2022-10-01T04:55:59.523Z,1.30
2022-10-01T04:56:57.841Z,1.60
2022-10-01T04:57:56.711Z,1.43
2022-10-01T05:01:11.600Z,1.20
2022-10-01T05:02:23.748Z,1.40
2022-10-01T05:04:54.360Z,1.40
2022-10-01T05:05:53.402Z,1.30
2022-10-01T05:06:54.404Z,2.53
2022-10-01T05:07:51.519Z,1.93
2022-10-01T05:08:49.623Z,1.30
2022-10-01T05:09:46.532Z,1.60
2022-10-01T05:10:43.567Z,1.23
2022-10-01T05:11:41.308Z,1.10
2022-10-01T05:12:38.283Z,2.30
2022-10-01T05:13:36.173Z,1.00
2022-10-01T05:14:33.016Z,1.47
2022-10-01T05:15:30.397Z,2.87
2022-10-01T05:16:27.306Z,1.00
2022-10-01T05:17:24.336Z,1.37
2022-10-01T05:18:21.302Z,1.33
2022-10-01T05:19:18.250Z,1.40
2022-10-01T05:20:22.480Z,1.23
2022-10-01T05:21:19.461Z,1.57
2022-10-01T05:22:16.559Z,1.53
2022-10-01T05:23:13.373Z,1.30
2022-10-01T05:24:10.250Z,2.00
2022-10-01T05:25:07.392Z,1.77
2022-10-01T05:26:05.834Z,0.90
2022-10-01T05:27:02.639Z,2.40
2022-10-01T05:28:05.595Z,2.27
2022-10-01T05:29:02.771Z,1.10
2022-10-01T05:29:59.521Z,1.20
2022-10-01T05:30:59.565Z,1.33
2022-10-01T05:31:58.929Z,0.90
2022-10-01T05:33:00.611Z,1.00
2022-10-01T05:33:57.531Z,0.80
2022-10-01T05:34:55.096Z,1.40
2022-10-01T05:35:52.059Z,0.97
2022-10-01T05:36:48.780Z,1.17
2022-10-01T05:37:45.726Z,0.90
2022-10-01T05:38:42.584Z,1.30
2022-10-01T05:39:39.371Z,1.53
2022-10-01T05:40:36.235Z,2.33
2022-10-01T05:41:33.319Z,1.33
2022-10-01T05:42:30.284Z,1.20
2022-10-01T05:43:27.133Z,1.00
2022-10-01T05:44:24.122Z,1.17
2022-10-01T05:45:22.780Z,3.70
2022-10-01T05:46:19.824Z,1.13
2022-10-01T05:47:16.918Z,1.07
2022-10-01T05:48:13.686Z,1.87
2022-10-01T05:49:10.793Z,0.90
2022-10-01T05:50:08.321Z,1.53
2022-10-01T05:51:06.805Z,1.40
2022-10-01T05:52:04.716Z,1.27
2022-10-01T05:53:02.028Z,1.30
2022-10-01T05:53:59.574Z,0.90
2022-10-01T05:54:56.295Z,1.80
2022-10-01T05:55:53.662Z,1.90
2022-10-01T05:56:51.038Z,3.27
2022-10-01T05:57:57.813Z,3.30
2022-10-01T05:58:55.139Z,2.80
2022-10-01T05:59:52.097Z,2.33
2022-10-01T06:00:48.990Z,4.10
2022-10-01T06:01:46.643Z,1.10
2022-10-01T06:02:43.611Z,1.60
2022-10-01T06:03:40.455Z,1.00
2022-10-01T06:04:41.028Z,0.90
2022-10-01T06:05:38.591Z,1.40
2022-10-01T06:06:35.231Z,4.10
2022-10-01T06:07:32.086Z,1.80
2022-10-01T06:08:29.066Z,1.20
2022-10-01T06:09:25.847Z,2.00
2022-10-01T06:10:22.738Z,1.77
2022-10-01T06:11:22.272Z,1.10
2022-10-01T06:12:20.064Z,1.37
2022-10-01T06:13:19.910Z,2.00
2022-10-01T06:14:17.025Z,1.30
2022-10-01T06:15:13.998Z,2.60
2022-10-01T06:16:11.777Z,1.10
2022-10-01T06:17:08.625Z,1.77
2022-10-01T06:18:08.809Z,1.30
2022-10-01T06:19:05.599Z,1.40
2022-10-01T06:20:02.462Z,1.20
2022-10-01T06:21:02.046Z,1.90
2022-10-01T06:21:58.862Z,1.10
2022-10-01T06:22:56.589Z,1.17
2022-10-01T06:23:53.554Z,1.77
2022-10-01T06:24:53.690Z,2.53
2022-10-01T06:25:52.876Z,1.80
2022-10-01T06:26:49.722Z,1.20
2022-10-01T06:27:56.368Z,1.93
2022-10-01T06:28:53.290Z,1.93
2022-10-01T06:29:50.066Z,1.47
2022-10-01T06:30:47.277Z,1.30
2022-10-01T06:31:44.016Z,1.10
2022-10-01T06:32:40.720Z,1.30
2022-10-01T06:33:37.559Z,1.83
2022-10-01T06:34:34.317Z,1.17
2022-10-01T06:35:31.563Z,5.20
2022-10-01T06:36:28.316Z,1.20
2022-10-01T06:37:25.360Z,2.03
2022-10-01T06:38:23.003Z,1.93
2022-10-01T06:39:19.827Z,1.20
2022-10-01T06:40:16.672Z,2.27
2022-10-01T06:41:14.267Z,2.30
2022-10-01T06:42:11.257Z,2.23
2022-10-01T06:43:08.443Z,1.13
2022-10-01T06:44:05.467Z,1.30
2022-10-01T06:45:02.248Z,1.20
2022-10-01T06:46:03.104Z,2.60
2022-10-01T06:46:59.989Z,1.67
2022-10-01T06:47:58.123Z,1.20
2022-10-01T06:48:54.960Z,1.47
2022-10-01T06:49:51.710Z,1.37
2022-10-01T06:50:49.856Z,1.73
2022-10-01T06:52:05.244Z,1.20
2022-10-01T06:53:02.201Z,1.40
2022-10-01T06:53:59.036Z,1.50
2022-10-01T06:54:55.837Z,1.33
2022-10-01T06:55:52.650Z,2.30
2022-10-01T06:56:49.429Z,3.23
2022-10-01T06:57:46.447Z,1.57
2022-10-01T06:58:46.421Z,2.10
2022-10-01T06:59:44.722Z,1.40
2022-10-01T07:00:53.888Z,2.60
2022-10-01T07:01:55.464Z,1.43
2022-10-01T07:02:53.194Z,4.27
2022-10-01T07:03:54.283Z,1.13
2022-10-01T07:04:51.546Z,2.13
2022-10-01T07:05:48.649Z,1.50
2022-10-01T07:06:45.561Z,2.13
2022-10-01T07:07:43.255Z,1.50
2022-10-01T07:08:40.589Z,3.13
2022-10-01T07:09:38.004Z,1.77
2022-10-01T07:10:35.381Z,1.80
2022-10-01T07:11:32.431Z,1.47
2022-10-01T07:12:33.214Z,2.13
2022-10-01T07:13:30.204Z,1.60
2022-10-01T07:14:26.994Z,1.10
2022-10-01T07:15:24.048Z,2.47
2022-10-01T07:16:21.068Z,1.37
2022-10-01T07:17:17.970Z,1.93
2022-10-01T07:18:23.132Z,3.77
2022-10-01T07:19:25.407Z,1.77
2022-10-01T07:20:22.662Z,1.90
2022-10-01T07:21:20.226Z,2.50
2022-10-01T07:22:19.338Z,1.83
2022-10-01T07:23:16.671Z,1.67
2022-10-01T07:24:13.894Z,2.23
2022-10-01T07:25:10.778Z,1.63
2022-10-01T07:26:09.316Z,2.13
2022-10-01T07:27:07.490Z,1.33
2022-10-01T07:28:04.945Z,4.63
2022-10-01T07:29:02.040Z,1.33
2022-10-01T07:29:59.165Z,1.30
2022-10-01T07:30:58.535Z,1.67
2022-10-01T07:32:01.332Z,2.10
2022-10-01T07:32:58.467Z,2.00
2022-10-01T07:33:58.791Z,3.53
2022-10-01T07:34:55.675Z,3.27
2022-10-01T07:35:52.538Z,3.93
2022-10-01T07:36:49.400Z,3.47
2022-10-01T07:37:49.315Z,1.33
2022-10-01T07:38:52.405Z,2.03
2022-10-01T07:39:49.578Z,2.70
2022-10-01T07:40:54.351Z,4.17
2022-10-01T07:41:54.437Z,3.23
2022-10-01T07:43:06.183Z,2.27
2022-10-01T07:44:04.349Z,2.87
2022-10-01T07:45:25.116Z,2.17
2022-10-01T07:46:25.884Z,3.00
2022-10-01T07:47:25.296Z,6.00
2022-10-01T07:48:25.321Z,4.93
2022-10-01T07:49:25.280Z,3.27
2022-10-01T07:50:35.696Z,3.37
2022-10-01T07:51:41.503Z,9.23
2022-10-01T07:52:50.179Z,7.97
2022-10-01T07:54:06.389Z,7.33
2022-10-01T07:55:14.355Z,5.10
2022-10-01T07:56:14.638Z,3.97
2022-10-01T07:57:14.900Z,7.60
2022-10-01T07:58:14.781Z,10.67
2022-10-01T07:59:14.843Z,7.00
2022-10-01T08:00:17.892Z,4.53
2022-10-01T08:01:18.208Z,4.73
2022-10-01T08:02:22.710Z,3.90
2022-10-01T08:03:27.480Z,2.77
2022-10-01T08:04:45.957Z,6.73
2022-10-01T08:06:10.071Z,6.30
2022-10-01T08:07:23.943Z,6.73
2022-10-01T08:08:36.728Z,6.23
2022-10-01T08:09:47.445Z,8.37
2022-10-01T08:11:41.751Z,3.77
2022-10-01T08:12:43.016Z,6.73
2022-10-01T08:13:55.151Z,9.10
2022-10-01T08:15:00.788Z,6.90
2022-10-01T08:16:08.074Z,6.53
2022-10-01T08:17:07.806Z,10.43
2022-10-01T08:18:12.180Z,8.17
2022-10-01T08:19:21.378Z,8.67
2022-10-01T08:20:39.332Z,8.23
2022-10-01T08:22:13.388Z,7.27
2022-10-01T08:26:22.429Z,8.50
2022-10-01T08:27:51.063Z,7.50
2022-10-01T08:29:26.823Z,7.97
2022-10-01T08:30:41.785Z,7.97
2022-10-01T08:31:44.393Z,6.20
2022-10-01T08:32:47.088Z,11.23
2022-10-01T08:33:49.515Z,8.40
2022-10-01T08:34:55.928Z,6.77
2022-10-01T08:36:22.867Z,6.43
2022-10-01T08:37:34.524Z,4.67
2022-10-01T08:38:43.398Z,4.97
2022-10-01T08:39:43.558Z,5.10
2022-10-01T08:41:02.212Z,4.90
2022-10-01T08:42:43.696Z,5.47
2022-10-01T08:43:47.828Z,4.80
2022-10-01T08:45:11.772Z,3.47
2022-10-01T08:46:16.500Z,3.40
2022-10-01T08:47:30.330Z,3.30
2022-10-01T08:48:45.271Z,5.33
2022-10-01T08:49:47.316Z,4.23
2022-10-01T08:50:52.994Z,3.80
2022-10-01T08:52:29.434Z,5.47
2022-10-01T08:53:45.074Z,4.17
2022-10-01T08:54:44.983Z,7.47
2022-10-01T08:55:54.724Z,7.10
2022-10-01T08:56:54.279Z,7.90
2022-10-01T08:57:59.577Z,7.03
2022-10-01T08:59:06.958Z,6.63
2022-10-01T09:00:08.194Z,7.83
2022-10-01T09:01:05.693Z,7.10
2022-10-01T09:02:29.538Z,7.70
2022-10-01T09:03:33.445Z,8.23
2022-10-01T09:04:30.937Z,7.53
2022-10-01T09:05:52.346Z,8.53
2022-10-01T11:08:16.919Z,6.57
2022-10-01T11:09:16.487Z,7.07
2022-10-01T11:10:56.710Z,4.77
2022-10-01T11:12:24.960Z,6.93
2022-10-01T11:13:54.928Z,6.97
2022-10-01T11:15:11.117Z,8.23
2022-10-01T11:16:44.844Z,8.30
2022-10-01T11:17:57.602Z,9.07
2022-10-01T11:19:11.497Z,9.47
2022-10-01T11:20:27.793Z,8.63
2022-10-01T11:41:24.112Z,9.50
2022-10-01T11:43:43.351Z,9.37
2022-10-01T11:45:38.106Z,5.97
2022-10-01T11:48:44.355Z,6.27
2022-10-01T11:50:54.556Z,5.37
2022-10-01T11:52:46.457Z,8.37
2022-10-01T11:54:04.853Z,5.67
2022-10-01T11:57:53.762Z,6.07
2022-10-01T11:59:10.895Z,6.70
2022-10-01T12:00:12.054Z,7.17
2022-10-01T12:01:38.009Z,7.20
2022-10-01T12:02:52.417Z,4.57
2022-10-01T12:03:58.976Z,7.17
2022-10-01T12:05:24.748Z,6.27
2022-10-01T12:06:33.640Z,6.20
2022-10-01T12:08:30.345Z,7.10
2022-10-01T12:19:13.883Z,8.07
2022-10-01T12:55:30.928Z,6.67
2022-10-01T12:56:41.055Z,6.87
2022-10-01T13:00:01.533Z,7.27
2022-10-01T13:01:36.460Z,6.00
2022-10-01T13:03:01.162Z,5.90
2022-10-01T13:05:57.215Z,4.73
2022-10-01T13:08:18.462Z,5.13
2022-10-01T13:09:37.700Z,5.97
2022-10-01T13:11:06.086Z,7.10
2022-10-01T13:12:29.095Z,5.37
2022-10-01T13:13:29.764Z,5.13
2022-10-01T13:14:27.459Z,6.77
2022-10-01T13:15:28.086Z,6.23
2022-10-01T13:16:56.155Z,10.07
2022-10-01T13:18:00.282Z,6.57
2022-10-01T13:19:05.985Z,8.80
2022-10-01T13:20:14.831Z,6.23
2022-10-01T13:21:24.850Z,7.50
2022-10-01T13:22:45.854Z,7.30
2022-10-01T13:24:06.393Z,7.00
2022-10-01T13:25:20.970Z,4.67
2022-10-01T13:26:22.545Z,7.13
2022-10-01T13:27:55.120Z,7.63
2022-10-01T13:29:26.048Z,6.37
2022-10-01T13:30:36.415Z,7.87
2022-10-01T13:32:01.165Z,7.83
2022-10-01T13:33:00.954Z,7.47
2022-10-01T13:33:58.198Z,6.30
2022-10-01T13:35:01.082Z,6.93
2022-10-01T13:36:00.411Z,6.40
2022-10-01T13:36:57.604Z,6.43
2022-10-01T13:37:54.744Z,6.80
2022-10-01T13:38:59.061Z,6.37
2022-10-01T13:40:09.460Z,5.63
2022-10-01T13:41:23.573Z,6.03
2022-10-01T13:43:59.241Z,6.53
2022-10-01T13:46:33.715Z,4.70
2022-10-01T13:48:46.984Z,8.40
2022-10-01T13:49:45.716Z,5.47
2022-10-01T13:51:04.356Z,6.07
2022-10-01T13:52:03.644Z,6.87
2022-10-01T13:53:17.573Z,6.90
2022-10-01T13:54:28.153Z,5.53
2022-10-01T13:55:29.064Z,6.90
2022-10-01T13:56:31.599Z,5.30
2022-10-01T13:57:36.562Z,6.50
2022-10-01T13:58:49.797Z,5.77
2022-10-01T13:59:46.933Z,6.03
2022-10-01T14:00:58.644Z,5.57
2022-10-01T14:02:23.072Z,5.00
2022-10-01T14:04:05.040Z,6.17
2022-10-01T14:05:40.966Z,8.53
2022-10-01T14:06:44.994Z,4.23
2022-10-01T14:07:45.904Z,6.40
2022-10-01T14:09:07.665Z,6.03
2022-10-01T14:13:30.479Z,5.50
2022-10-01T14:15:09.455Z,7.77
2022-10-01T14:16:22.510Z,6.23
2022-10-01T14:17:34.372Z,6.17
2022-10-01T14:18:36.697Z,7.33
2022-10-01T14:19:34.220Z,4.40
2022-10-01T14:20:36.129Z,5.97
2022-10-01T14:23:23.662Z,7.77
2022-10-01T14:24:23.404Z,6.73
2022-10-01T14:25:41.451Z,7.50
2022-10-01T14:26:52.478Z,5.97
2022-10-01T14:27:58.214Z,6.27
2022-10-01T14:29:23.452Z,5.53
2022-10-01T14:30:24.086Z,6.90
2022-10-01T14:31:41.390Z,5.63
2022-10-01T14:32:50.976Z,7.70
2022-10-01T14:33:50.697Z,6.67
2022-10-01T14:35:05.224Z,7.23
2022-10-01T14:36:16.868Z,6.23
2022-10-01T14:37:17.283Z,8.27
2022-10-01T14:38:21.226Z,5.20
2022-10-01T14:39:29.470Z,7.73
2022-10-01T14:40:26.716Z,7.73
2022-10-01T14:41:24.309Z,8.20
2022-10-01T14:42:24.377Z,8.67
2022-10-01T14:44:49.464Z,8.33
2022-10-01T14:46:06.021Z,7.37
2022-10-01T14:47:25.314Z,6.57
2022-10-01T14:48:23.085Z,8.27
2022-10-01T14:49:32.035Z,8.33
2022-10-01T14:55:34.653Z,6.07
2022-10-01T14:57:09.741Z,4.77
2022-10-01T14:58:06.914Z,8.50
2022-10-01T14:59:04.238Z,6.00
2022-10-01T15:00:02.158Z,5.43
2022-10-01T15:00:59.057Z,6.47
2022-10-01T15:02:01.450Z,6.47
2022-10-01T15:03:15.318Z,7.70
2022-10-01T15:04:16.978Z,5.27
2022-10-01T15:05:22.752Z,4.87
2022-10-01T15:06:24.227Z,5.00
2022-10-01T15:07:21.086Z,6.57
2022-10-01T15:08:19.519Z,5.43
2022-10-01T15:09:18.746Z,5.90
2022-10-01T15:10:20.463Z,7.50
2022-10-01T15:11:25.325Z,7.53
2022-10-01T15:12:22.606Z,6.23
2022-10-01T15:13:26.636Z,7.00
2022-10-01T15:14:24.975Z,5.23
2022-10-01T15:15:28.120Z,5.80
2022-10-01T15:16:26.098Z,7.23
2022-10-01T15:17:25.157Z,5.57
2022-10-01T15:18:22.032Z,6.67
2022-10-01T15:19:20.017Z,5.67
2022-10-01T15:20:17.122Z,6.10
2022-10-01T15:21:25.006Z,5.20
2022-10-01T15:22:23.683Z,4.97
2022-10-01T15:23:21.909Z,4.60
2022-10-01T15:24:22.632Z,6.97
2022-10-01T15:25:23.937Z,6.00
2022-10-01T15:26:27.773Z,7.67
2022-10-01T15:27:24.889Z,4.63
2022-10-01T15:28:33.294Z,6.37
2022-10-01T15:29:30.288Z,6.60
2022-10-01T15:30:27.479Z,6.47
2022-10-01T15:31:24.414Z,4.43
2022-10-01T15:32:25.279Z,4.77
2022-10-01T15:33:27.804Z,5.60
2022-10-01T15:34:25.718Z,5.40
2022-10-01T15:35:22.930Z,6.07
2022-10-01T15:36:19.799Z,6.00
2022-10-01T15:37:31.412Z,6.47
2022-10-01T15:38:31.029Z,6.00
2022-10-01T15:39:31.496Z,6.40
2022-10-01T15:40:30.000Z,6.97
2022-10-01T15:41:32.302Z,6.37
2022-10-01T15:42:31.275Z,6.87
2022-10-01T15:43:35.705Z,7.97
2022-10-01T15:44:46.361Z,8.10
2022-10-01T15:45:43.301Z,8.40
2022-10-01T15:46:40.485Z,7.23
2022-10-01T15:47:52.440Z,9.77
2022-10-01T15:48:58.101Z,9.10
2022-10-01T15:50:01.570Z,7.50
2022-10-01T15:51:24.133Z,7.43
2022-10-01T15:52:39.267Z,6.80
2022-10-01T15:53:36.104Z,5.67
2022-10-01T15:54:34.705Z,7.10
2022-10-01T15:55:34.548Z,7.43
2022-10-01T15:56:31.915Z,5.07
2022-10-01T15:57:33.660Z,9.83
2022-10-01T15:58:32.312Z,7.00
2022-10-01T15:59:29.210Z,5.20
2022-10-01T16:00:28.033Z,8.43
2022-10-01T16:01:26.471Z,7.17
2022-10-01T16:02:26.179Z,8.13
2022-10-01T16:03:27.392Z,5.80
2022-10-01T16:04:24.404Z,8.03
2022-10-01T16:05:23.458Z,5.90
2022-10-01T16:06:27.114Z,7.27
2022-10-01T16:07:30.384Z,6.67
2022-10-01T16:08:39.543Z,7.10
2022-10-01T16:09:36.513Z,6.87
2022-10-01T16:10:35.721Z,8.57
2022-10-01T16:11:50.034Z,10.43
2022-10-01T16:12:46.976Z,7.77
2022-10-01T16:13:45.645Z,7.07
2022-10-01T16:14:44.193Z,7.23
2022-10-01T16:15:41.187Z,6.77
2022-10-01T16:16:38.928Z,7.50
2022-10-01T16:17:38.651Z,10.57
2022-10-01T16:18:37.527Z,7.67
2022-10-01T16:19:34.334Z,7.00
2022-10-01T16:20:47.883Z,8.13
2022-10-01T16:22:24.582Z,8.67
2022-10-01T16:23:34.781Z,5.53
2022-10-01T16:24:32.126Z,8.30
2022-10-01T16:25:32.144Z,8.03
2022-10-01T16:26:35.240Z,6.10
2022-10-01T16:27:35.735Z,5.97
2022-10-01T16:28:33.812Z,5.50
2022-10-01T16:29:30.662Z,7.90
2022-10-01T16:30:28.235Z,8.13
2022-10-01T16:31:25.727Z,6.13
2022-10-01T16:32:22.815Z,5.90
2022-10-01T16:33:20.542Z,6.83
2022-10-01T16:34:18.472Z,8.70
2022-10-01T16:35:24.555Z,8.53
2022-10-01T16:36:24.135Z,8.13
2022-10-01T16:37:20.883Z,6.30
2022-10-01T16:38:17.770Z,8.80
2022-10-01T16:39:15.648Z,7.23
2022-10-01T16:40:16.170Z,7.53
2022-10-01T16:41:15.386Z,7.63
2022-10-01T16:42:24.408Z,7.03
2022-10-01T16:43:24.346Z,8.80
2022-10-01T16:44:21.124Z,8.23
2022-10-01T16:45:24.422Z,10.50
2022-10-01T16:46:25.519Z,10.27
2022-10-01T16:47:22.815Z,6.73
2022-10-01T16:48:23.210Z,8.63
2022-10-01T16:49:20.250Z,6.90
2022-10-01T16:50:18.146Z,7.60
2022-10-01T16:51:15.084Z,7.03
2022-10-01T16:52:13.216Z,7.07
2022-10-01T16:53:15.516Z,11.27
2022-10-01T16:54:23.754Z,6.17
2022-10-01T16:55:24.951Z,6.90
2022-10-01T17:06:54.459Z,10.20
2022-10-01T17:08:01.129Z,8.00
2022-10-01T17:08:58.248Z,6.47
2022-10-01T17:10:16.390Z,8.50
2022-10-01T17:11:18.232Z,6.97
2022-10-01T17:12:29.580Z,8.70
2022-10-01T17:13:29.919Z,9.17
2022-10-01T17:14:28.150Z,6.33
2022-10-01T17:16:30.397Z,7.10
2022-10-01T17:17:28.822Z,7.87
2022-10-01T17:18:26.009Z,9.30
2022-10-01T17:21:04.135Z,10.43
2022-10-01T17:22:29.684Z,13.33
2022-10-01T17:23:33.891Z,6.90
2022-10-01T17:24:36.829Z,10.53
2022-10-01T17:25:35.826Z,10.63
2022-10-01T17:26:41.445Z,9.50
2022-10-01T17:27:38.831Z,10.60
2022-10-01T17:28:39.606Z,8.00
2022-10-01T17:29:41.096Z,9.07
2022-10-01T17:30:58.843Z,9.77
2022-10-01T17:31:59.020Z,9.30
2022-10-01T17:33:20.012Z,7.90
2022-10-01T17:34:21.329Z,9.53
2022-10-01T17:41:26.754Z,8.80
2022-10-01T17:43:39.099Z,11.70
2022-10-01T17:47:10.428Z,11.17
2022-10-01T17:48:14.154Z,14.47
2022-10-01T17:49:13.274Z,8.80
2022-10-01T17:50:12.368Z,11.33
2022-10-01T17:51:18.174Z,8.20
2022-10-01T17:52:16.939Z,12.53
2022-10-01T17:53:15.065Z,8.10
2022-10-01T17:54:23.198Z,9.60
2022-10-01T17:55:22.001Z,11.37
2022-10-01T18:04:54.855Z,9.37
2022-10-01T18:06:07.830Z,11.60
2022-10-01T18:07:08.833Z,8.60
2022-10-01T18:10:40.368Z,9.10